Terminal Aerodrome Forecast
Issued by NWS

Home | Current Version | Previous Version | Text Only | Print | Product List | Glossary On
Versions: 1 2 3 4 5 6 7 8 9 10 11 12 13 14 15 16 17 18
000
FTUS43 KOAX 291221 CCA
TAFSNY
TAF COR
KSNY 291221Z 2912/3012 24005KT 6SM BR SCT007
      TEMPO 2912/2915 3SM BR
     FM291500 17008KT P6SM SCT050
     FM292200 15010KT P6SM VCTS SCT060CB BKN100
     FM300400 19008KT P6SM SCT100=

USA.gov is the U.S. government's official web portal to all federal, state and local government web resources and services.